createdAt,value
2023-01-11T00:00:41.169Z,1.70
2023-01-11T00:03:07.863Z,2.38
2023-01-11T00:05:38.725Z,5.40
2023-01-11T00:08:05.742Z,3.95
2023-01-11T00:10:32.421Z,3.40
2023-01-11T00:13:00.092Z,3.20
2023-01-11T00:15:26.574Z,4.32
2023-01-11T00:17:52.986Z,2.20
2023-01-11T00:20:19.421Z,3.75
2023-01-11T00:22:45.854Z,2.58
2023-01-11T00:25:12.387Z,4.75
2023-01-11T00:27:38.811Z,2.47
2023-01-11T00:30:05.602Z,4.35
2023-01-11T00:32:32.005Z,2.40
2023-01-11T00:34:58.425Z,2.58
2023-01-11T00:37:24.832Z,5.78
2023-01-11T00:39:51.257Z,5.80
2023-01-11T00:42:17.649Z,3.15
2023-01-11T00:44:44.081Z,4.60
2023-01-11T00:47:17.027Z,5.53
2023-01-11T00:49:43.753Z,4.63
2023-01-11T00:52:10.338Z,4.43
2023-01-11T00:54:37.759Z,3.67
2023-01-11T00:57:04.528Z,2.83
2023-01-11T00:59:30.942Z,5.10
2023-01-11T01:01:57.359Z,3.85
2023-01-11T01:04:23.924Z,4.88
2023-01-11T01:06:50.385Z,4.45
2023-01-11T01:09:16.842Z,3.42
2023-01-11T01:11:43.311Z,2.85
2023-01-11T01:14:12.841Z,4.90
2023-01-11T01:16:39.272Z,5.85
2023-01-11T01:19:05.668Z,3.20
2023-01-11T01:21:32.099Z,2.33
2023-01-11T01:23:58.514Z,3.30
2023-01-11T01:26:24.934Z,2.95
2023-01-11T01:28:51.328Z,4.88
2023-01-11T01:31:17.850Z,5.50
2023-01-11T01:33:44.290Z,3.25
2023-01-11T01:36:10.688Z,2.15
2023-01-11T01:38:37.120Z,6.00
2023-01-11T01:41:03.790Z,2.88
2023-01-11T01:43:53.310Z,2.03
2023-01-11T01:46:20.733Z,1.90
2023-01-11T01:48:53.672Z,3.35
2023-01-11T01:51:29.887Z,2.33
2023-01-11T01:53:57.588Z,3.20
2023-01-11T01:56:34.827Z,2.65
2023-01-11T01:59:03.291Z,4.60
2023-01-11T02:01:30.320Z,1.17
2023-01-11T02:03:56.768Z,2.22
2023-01-11T02:06:23.330Z,4.47
2023-01-11T02:08:52.223Z,1.50
2023-01-11T02:11:18.683Z,2.20
2023-01-11T02:13:45.097Z,2.42
2023-01-11T02:16:11.533Z,1.98
2023-01-11T02:18:38.040Z,3.05
2023-01-11T02:21:19.541Z,1.65
2023-01-11T02:23:52.049Z,1.63
2023-01-11T02:26:40.142Z,1.00
2023-01-11T02:29:41.779Z,2.42
2023-01-11T02:32:08.144Z,3.97
2023-01-11T02:34:52.533Z,1.75
2023-01-11T02:37:53.624Z,1.20
2023-01-11T02:40:38.174Z,1.05
2023-01-11T02:43:26.653Z,1.67
2023-01-11T02:46:00.678Z,1.52
2023-01-11T02:48:56.267Z,1.65
2023-01-11T02:51:44.661Z,0.98
2023-01-11T02:54:11.592Z,3.20
2023-01-11T02:56:42.372Z,1.45
2023-01-11T02:59:13.836Z,2.53
2023-01-11T03:01:45.168Z,0.70
2023-01-11T03:04:29.985Z,1.15
2023-01-11T03:07:17.980Z,2.42
2023-01-11T03:09:56.463Z,1.10
2023-01-11T03:12:41.055Z,1.13
2023-01-11T03:15:26.096Z,0.60
2023-01-11T03:17:58.133Z,0.70
2023-01-11T03:20:37.524Z,2.17
2023-01-11T03:23:20.972Z,1.60
2023-01-11T03:25:59.483Z,1.48
2023-01-11T03:28:41.577Z,0.90
2023-01-11T03:31:18.192Z,0.80
2023-01-11T03:33:52.822Z,1.33
2023-01-11T03:36:26.234Z,0.88
2023-01-11T03:38:57.993Z,3.95
2023-01-11T03:41:29.799Z,2.58
2023-01-11T03:43:56.612Z,1.48
2023-01-11T03:46:26.315Z,2.08
2023-01-11T03:49:26.759Z,0.95
2023-01-11T03:51:53.186Z,1.77
2023-01-11T03:54:22.118Z,1.38
2023-01-11T03:57:10.819Z,1.38
2023-01-11T03:59:37.225Z,1.90
2023-01-11T04:02:03.664Z,1.08
2023-01-11T04:04:30.114Z,1.30
2023-01-11T04:06:56.719Z,0.82
2023-01-11T04:09:23.182Z,1.33
2023-01-11T04:11:49.623Z,0.77
2023-01-11T04:14:16.021Z,1.83
2023-01-11T04:16:42.580Z,1.00
2023-01-11T04:19:08.996Z,1.02
2023-01-11T04:21:35.414Z,1.15
2023-01-11T04:24:01.859Z,2.47
2023-01-11T04:26:28.299Z,2.45
2023-01-11T04:28:54.700Z,0.80
2023-01-11T04:31:21.288Z,0.82
2023-01-11T04:33:47.799Z,0.90
2023-01-11T04:36:14.357Z,0.80
2023-01-11T04:38:40.785Z,1.13
2023-01-11T04:41:07.172Z,1.20
2023-01-11T04:43:33.664Z,0.50
2023-01-11T04:46:00.122Z,1.10
2023-01-11T04:48:26.589Z,1.60
2023-01-11T04:50:53.042Z,2.83
2023-01-11T04:53:19.535Z,0.93
2023-01-11T04:55:45.928Z,2.10
2023-01-11T04:58:12.354Z,1.17
2023-01-11T05:00:38.787Z,1.38
2023-01-11T05:03:05.198Z,1.30
2023-01-11T05:05:31.615Z,4.07
2023-01-11T05:07:58.081Z,0.82
2023-01-11T05:10:24.505Z,2.78
2023-01-11T05:12:51.187Z,2.05
2023-01-11T05:15:17.648Z,1.50
2023-01-11T05:17:44.021Z,0.90
2023-01-11T05:20:11.092Z,1.17
2023-01-11T05:22:37.494Z,1.98
2023-01-11T05:25:04.242Z,0.70
2023-01-11T05:27:30.648Z,1.67
2023-01-11T05:29:57.224Z,2.42
2023-01-11T05:32:23.706Z,1.33
2023-01-11T05:34:50.182Z,0.90
2023-01-11T05:37:16.725Z,1.20
2023-01-11T05:39:43.143Z,0.88
2023-01-11T05:42:09.583Z,0.63
2023-01-11T05:44:35.985Z,0.98
2023-01-11T05:47:02.424Z,1.00
2023-01-11T05:49:28.815Z,1.60
2023-01-11T05:51:55.241Z,0.70
2023-01-11T05:54:21.763Z,0.73
2023-01-11T05:56:48.177Z,1.00
2023-01-11T05:59:14.600Z,1.20
2023-01-11T06:01:41.038Z,0.98
2023-01-11T06:04:07.457Z,0.55
2023-01-11T06:06:33.989Z,0.80
2023-01-11T06:09:00.439Z,0.80
2023-01-11T06:11:26.863Z,0.90
2023-01-11T06:13:53.244Z,1.15
2023-01-11T06:16:20.147Z,1.60
2023-01-11T06:18:51.277Z,1.02
2023-01-11T06:21:17.984Z,1.42
2023-01-11T06:23:45.942Z,0.70
2023-01-11T06:26:14.043Z,0.70
2023-01-11T06:28:40.648Z,0.80
2023-01-11T06:31:07.318Z,1.42
2023-01-11T06:33:34.322Z,0.75
2023-01-11T06:36:08.941Z,0.70
2023-01-11T06:38:35.498Z,1.17
2023-01-11T06:41:02.569Z,1.27
2023-01-11T06:43:29.405Z,1.13
2023-01-11T06:45:55.993Z,1.48
2023-01-11T06:48:22.532Z,1.10
2023-01-11T06:50:49.778Z,1.17
2023-01-11T06:53:16.263Z,1.55
2023-01-11T06:55:42.694Z,1.50
2023-01-11T06:58:09.139Z,1.40
2023-01-11T07:00:35.780Z,1.88
2023-01-11T07:03:05.672Z,2.80
2023-01-11T07:07:59.071Z,1.17
2023-01-11T07:10:25.489Z,1.70
2023-01-11T07:12:51.916Z,1.90
2023-01-11T07:15:18.516Z,1.75
2023-01-11T07:17:45.086Z,3.72
2023-01-11T07:20:11.804Z,1.83
2023-01-11T07:22:38.291Z,3.25
2023-01-11T07:25:05.230Z,2.13
2023-01-11T07:27:31.754Z,2.58
2023-01-11T07:29:58.282Z,2.42
2023-01-11T07:32:24.663Z,2.28
2023-01-11T07:34:51.064Z,3.85
2023-01-11T07:37:28.547Z,3.17
2023-01-11T07:39:55.928Z,3.05
2023-01-11T07:42:22.376Z,2.47
2023-01-11T07:44:48.809Z,2.72
2023-01-11T07:47:15.239Z,3.47
2023-01-11T07:49:41.670Z,2.60
2023-01-11T07:52:08.056Z,2.35
2023-01-11T07:54:34.551Z,2.47
2023-01-11T07:57:01.034Z,2.40
2023-01-11T07:59:27.479Z,3.28
2023-01-11T08:01:54.054Z,3.13
2023-01-11T08:04:20.602Z,3.28
2023-01-11T08:06:47.099Z,4.47
2023-01-11T08:09:14.371Z,4.53
2023-01-11T08:11:40.866Z,4.13
2023-01-11T08:14:09.037Z,11.02
2023-01-11T08:16:35.499Z,9.30
2023-01-11T08:19:01.981Z,12.52
2023-01-11T08:21:28.614Z,12.02
2023-01-11T08:23:58.591Z,7.93
2023-01-11T08:26:25.715Z,7.68
2023-01-11T08:28:54.563Z,6.00
2023-01-11T08:31:21.469Z,5.75
2023-01-11T08:33:52.842Z,4.40
2023-01-11T08:36:19.362Z,3.75
2023-01-11T08:38:45.863Z,4.28
2023-01-11T08:41:12.251Z,5.68
2023-01-11T08:43:39.136Z,3.58
2023-01-11T08:46:05.829Z,5.82
2023-01-11T08:48:32.333Z,2.92
2023-01-11T08:50:58.759Z,3.65
2023-01-11T08:53:25.296Z,5.35
2023-01-11T08:55:52.019Z,3.95
2023-01-11T08:58:20.613Z,2.88
2023-01-11T09:00:47.998Z,4.43
2023-01-11T09:03:14.597Z,4.55
2023-01-11T09:05:41.285Z,2.95
2023-01-11T09:08:08.383Z,3.47
2023-01-11T09:10:35.035Z,4.03
2023-01-11T09:13:01.442Z,3.33
2023-01-11T09:15:28.007Z,2.13
2023-01-11T09:17:58.690Z,2.58
2023-01-11T09:20:25.136Z,3.88
2023-01-11T09:22:53.015Z,3.90
2023-01-11T09:25:20.891Z,3.55
2023-01-11T09:27:50.679Z,3.25
2023-01-11T09:32:45.487Z,2.03
2023-01-11T09:35:11.968Z,3.40
2023-01-11T09:37:38.391Z,4.88
2023-01-11T09:40:05.880Z,2.97
2023-01-11T09:42:33.260Z,5.70
2023-01-11T09:45:05.805Z,4.90
2023-01-11T09:47:45.348Z,3.08
2023-01-11T09:50:26.044Z,4.20
2023-01-11T09:53:05.252Z,3.20
2023-01-11T09:55:41.128Z,2.38
2023-01-11T09:58:19.382Z,2.13
2023-01-11T10:01:00.985Z,4.05
2023-01-11T10:03:39.726Z,2.30
2023-01-11T10:06:15.318Z,2.05
2023-01-11T10:18:26.392Z,2.30
2023-01-11T10:18:37.501Z,3.67
2023-01-11T10:20:26.015Z,4.95
2023-01-11T10:25:23.642Z,2.53
2023-01-11T10:28:19.165Z,4.30
2023-01-11T10:30:48.381Z,2.05
2023-01-11T10:33:33.827Z,6.45
2023-01-11T10:36:43.310Z,2.22
2023-01-11T10:39:13.798Z,1.60
2023-01-11T10:41:50.437Z,2.80
2023-01-11T10:44:21.112Z,3.00
2023-01-11T10:46:49.842Z,1.38
2023-01-11T10:49:25.273Z,6.30
2023-01-11T10:51:51.694Z,3.08
2023-01-11T10:54:20.794Z,3.67
2023-01-11T10:57:19.599Z,3.53
2023-01-11T10:59:48.699Z,3.65
2023-01-11T11:02:27.325Z,3.35
2023-01-11T11:05:05.655Z,4.53
2023-01-11T11:07:43.770Z,4.43
2023-01-11T11:10:25.387Z,4.88
2023-01-11T11:15:33.923Z,3.40
2023-01-11T11:18:00.327Z,4.85
2023-01-11T11:20:32.155Z,1.40
2023-01-11T11:22:58.614Z,3.47
2023-01-11T11:25:32.578Z,1.83
2023-01-11T11:28:07.390Z,2.35
2023-01-11T11:30:35.352Z,3.42
2023-01-11T11:33:02.634Z,1.50
2023-01-11T11:35:40.612Z,4.15
2023-01-11T11:38:07.109Z,3.28
2023-01-11T11:40:35.872Z,7.60
2023-01-11T11:43:20.235Z,3.38
2023-01-11T11:45:54.001Z,3.13
2023-01-11T11:48:20.584Z,4.00
2023-01-11T11:50:47.594Z,4.75
2023-01-11T11:53:22.864Z,4.38
2023-01-11T11:55:49.306Z,6.57
2023-01-11T11:58:16.380Z,4.53
2023-01-11T12:00:47.426Z,3.72
2023-01-11T12:03:18.239Z,4.85
2023-01-11T12:05:55.518Z,3.75
2023-01-11T12:08:22.212Z,5.25
2023-01-11T12:10:54.344Z,4.95
2023-01-11T12:13:33.700Z,3.92
2023-01-11T12:16:04.313Z,4.45
2023-01-11T12:18:40.691Z,6.95
2023-01-11T12:21:20.375Z,2.03
2023-01-11T12:23:47.536Z,2.63
2023-01-11T12:26:21.301Z,3.88
2023-01-11T12:29:02.759Z,8.15
2023-01-11T12:31:47.188Z,6.78
2023-01-11T12:34:28.797Z,3.78
2023-01-11T12:39:21.989Z,4.53
2023-01-11T12:41:57.777Z,6.25
2023-01-11T12:44:42.529Z,3.65
2023-01-11T12:47:39.881Z,6.00
2023-01-11T12:50:15.405Z,4.90
2023-01-11T12:52:51.597Z,5.20
2023-01-11T12:55:24.588Z,6.38
2023-01-11T12:58:17.877Z,5.68
2023-01-11T13:00:56.422Z,5.32
2023-01-11T13:03:25.499Z,5.40
2023-01-11T13:05:51.790Z,5.65
2023-01-11T13:08:22.288Z,4.65
2023-01-11T13:11:11.245Z,7.40
2023-01-11T13:14:00.835Z,4.13
2023-01-11T13:16:42.663Z,5.55
2023-01-11T13:19:12.744Z,7.10
2023-01-11T13:21:44.153Z,7.57
2023-01-11T13:24:15.709Z,4.13
2023-01-11T13:26:44.103Z,8.25
2023-01-11T13:29:13.616Z,3.60
2023-01-11T13:31:40.013Z,7.53
2023-01-11T13:34:12.139Z,5.32
2023-01-11T13:36:48.709Z,5.47
2023-01-11T13:39:25.756Z,6.00
2023-01-11T13:41:52.994Z,5.25
2023-01-11T13:44:28.195Z,3.40
2023-01-11T13:47:06.824Z,13.10
2023-01-11T13:49:53.681Z,7.85
2023-01-11T13:52:32.688Z,5.22
2023-01-11T13:55:24.427Z,7.72
2023-01-11T13:58:18.551Z,5.25
2023-01-11T14:03:33.893Z,9.50
2023-01-11T14:06:27.848Z,10.45
2023-01-11T14:09:51.919Z,5.82
2023-01-11T14:12:39.240Z,5.65
2023-01-11T14:15:23.489Z,1.85
2023-01-11T14:18:26.535Z,8.50
2023-01-11T14:21:19.572Z,3.85
2023-01-11T14:23:53.344Z,6.35
2023-01-11T14:26:44.740Z,9.05
2023-01-11T14:29:17.463Z,6.07
2023-01-11T14:32:21.640Z,4.22
2023-01-11T14:35:01.413Z,3.83
2023-01-11T14:38:05.365Z,4.57
2023-01-11T14:40:56.532Z,4.28
2023-01-11T14:43:38.154Z,2.60
2023-01-11T14:49:11.864Z,5.63
2023-01-11T14:52:03.319Z,6.95
2023-01-11T14:54:34.948Z,4.90
2023-01-11T14:57:01.505Z,3.42
2023-01-11T14:59:31.067Z,10.40
2023-01-11T15:02:03.281Z,6.15
2023-01-11T15:04:33.347Z,3.15
2023-01-11T15:07:01.229Z,3.55
2023-01-11T15:09:47.934Z,7.97
2023-01-11T15:12:20.889Z,5.03
2023-01-11T15:14:49.086Z,9.32
2023-01-11T15:17:19.542Z,4.43
2023-01-11T15:19:46.039Z,4.22
2023-01-11T15:22:38.689Z,4.95
2023-01-11T15:25:06.553Z,5.43
2023-01-11T15:27:37.316Z,5.50
2023-01-11T15:30:08.425Z,5.18
2023-01-11T15:32:34.996Z,4.65
2023-01-11T15:35:17.721Z,7.03
2023-01-11T15:38:02.353Z,6.70
2023-01-11T15:40:31.311Z,10.63
2023-01-11T15:43:19.834Z,6.53
2023-01-11T15:45:59.771Z,5.85
2023-01-11T15:48:36.125Z,5.53
2023-01-11T15:51:28.948Z,2.63
2023-01-11T15:54:27.628Z,7.47
2023-01-11T15:57:06.559Z,3.75
2023-01-11T15:59:51.119Z,9.07
2023-01-11T16:02:56.993Z,6.07
2023-01-11T16:05:25.154Z,5.55
2023-01-11T16:08:19.487Z,5.85
2023-01-11T16:11:16.742Z,8.35
2023-01-11T16:13:44.574Z,3.97
2023-01-11T16:16:21.895Z,4.70
2023-01-11T16:18:53.488Z,5.28
2023-01-11T16:21:27.273Z,7.63
2023-01-11T16:23:53.941Z,7.05
2023-01-11T16:26:20.365Z,13.00
2023-01-11T16:28:51.556Z,6.63
2023-01-11T16:31:18.022Z,6.50
2023-01-11T16:33:44.457Z,6.78
2023-01-11T16:36:12.190Z,8.60
2023-01-11T16:39:07.568Z,6.70
2023-01-11T16:42:03.959Z,7.80
2023-01-11T16:44:39.068Z,3.78
2023-01-11T16:47:12.676Z,8.77
2023-01-11T16:49:40.049Z,7.18
2023-01-11T16:52:29.628Z,8.05
2023-01-11T16:55:00.228Z,4.90
2023-01-11T16:57:35.384Z,6.88
2023-01-11T17:00:18.789Z,10.45
2023-01-11T17:02:45.195Z,6.50
2023-01-11T17:05:18.920Z,6.25
2023-01-11T17:07:45.340Z,3.78
2023-01-11T17:10:28.909Z,6.93
2023-01-11T17:13:18.201Z,14.18
2023-01-11T17:15:51.250Z,5.53
2023-01-11T17:18:17.715Z,5.82
2023-01-11T17:20:44.166Z,4.80
2023-01-11T17:23:15.254Z,6.25
2023-01-11T17:25:45.083Z,10.70
2023-01-11T17:28:17.696Z,5.35
2023-01-11T17:30:45.009Z,8.88
2023-01-11T17:33:24.628Z,7.35
2023-01-11T17:35:51.053Z,7.78
2023-01-11T17:38:17.479Z,6.78
2023-01-11T17:40:43.889Z,5.28
2023-01-11T17:43:13.343Z,5.22
2023-01-11T17:45:39.795Z,11.32
2023-01-11T17:48:13.378Z,7.05
2023-01-11T17:50:47.713Z,8.98
2023-01-11T17:53:23.583Z,6.65
2023-01-11T17:55:51.691Z,9.18
2023-01-11T17:58:28.147Z,10.88
2023-01-11T18:01:13.795Z,8.73
2023-01-11T18:03:58.452Z,9.20
2023-01-11T18:06:38.609Z,5.35
2023-01-11T18:09:06.641Z,7.70
2023-01-11T18:11:39.046Z,6.38
2023-01-11T18:14:07.136Z,8.80
2023-01-11T18:16:33.634Z,8.18
2023-01-11T18:19:00.180Z,9.05
2023-01-11T18:21:26.670Z,8.70
2023-01-11T18:24:11.603Z,4.95
2023-01-11T18:26:42.572Z,6.07
2023-01-11T18:29:37.048Z,6.88
2023-01-11T18:32:08.384Z,7.40
2023-01-11T18:34:34.797Z,7.40
2023-01-11T18:37:02.789Z,9.38
2023-01-11T18:39:29.245Z,5.07
2023-01-11T18:41:55.815Z,11.18
2023-01-11T18:44:22.276Z,9.75
2023-01-11T18:46:49.051Z,8.95
2023-01-11T18:49:15.466Z,6.82
2023-01-11T18:51:44.197Z,4.00
2023-01-11T18:54:15.080Z,6.97
2023-01-11T18:56:41.508Z,6.57
2023-01-11T18:59:08.913Z,4.22
2023-01-11T19:01:54.501Z,6.03
2023-01-11T19:04:33.942Z,10.18
2023-01-11T19:07:02.668Z,9.23
2023-01-11T19:09:31.907Z,9.02
2023-01-11T19:11:59.703Z,6.47
2023-01-11T19:14:26.287Z,6.35
2023-01-11T19:16:52.742Z,8.40
2023-01-11T19:19:20.652Z,10.05
2023-01-11T19:21:47.095Z,6.60
2023-01-11T19:24:13.561Z,7.78
2023-01-11T19:26:40.060Z,6.15
2023-01-11T19:29:07.603Z,10.70
2023-01-11T19:31:34.130Z,6.80
2023-01-11T19:34:00.554Z,9.57
2023-01-11T19:36:27.021Z,12.50
2023-01-11T19:38:53.459Z,5.35
2023-01-11T19:41:19.997Z,6.15
2023-01-11T19:43:46.436Z,12.23
2023-01-11T19:46:15.059Z,9.27
2023-01-11T19:48:43.947Z,4.68
2023-01-11T19:51:14.674Z,9.13
2023-01-11T19:53:41.170Z,7.50
2023-01-11T19:56:08.248Z,10.32
2023-01-11T19:58:37.736Z,8.82
2023-01-11T20:01:11.128Z,10.10
2023-01-11T20:03:37.677Z,7.57
2023-01-11T20:06:05.261Z,7.60
2023-01-11T20:08:31.757Z,8.85
2023-01-11T20:11:03.293Z,9.35
2023-01-11T20:13:29.809Z,9.10
2023-01-11T20:15:56.319Z,8.20
2023-01-11T20:18:22.781Z,6.90
2023-01-11T20:20:55.669Z,6.88
2023-01-11T20:23:22.910Z,7.97
2023-01-11T20:25:49.428Z,9.57
2023-01-11T20:28:15.852Z,15.20
2023-01-11T20:30:42.307Z,6.47
2023-01-11T20:33:13.861Z,7.22
2023-01-11T20:35:42.024Z,5.88
2023-01-11T20:38:11.808Z,5.30
2023-01-11T20:43:04.963Z,8.23
2023-01-11T20:45:31.395Z,10.70
2023-01-11T20:48:00.793Z,7.00
2023-01-11T20:50:27.322Z,4.53
2023-01-11T20:52:53.866Z,8.88
2023-01-11T20:55:20.383Z,10.52
2023-01-11T20:57:47.356Z,9.10
2023-01-11T21:00:15.341Z,7.13
2023-01-11T21:02:41.831Z,9.18
2023-01-11T21:05:08.521Z,9.32
2023-01-11T21:07:34.943Z,8.05
2023-01-11T21:10:01.393Z,11.38
2023-01-11T21:12:27.797Z,13.70
2023-01-11T21:14:54.323Z,6.40
2023-01-11T21:17:20.735Z,7.15
2023-01-11T21:19:47.140Z,7.78
2023-01-11T21:22:13.587Z,9.57
2023-01-11T21:24:40.024Z,14.00
2023-01-11T21:27:07.024Z,6.55
2023-01-11T21:29:33.951Z,7.40
2023-01-11T21:32:00.377Z,7.55
2023-01-11T21:34:26.837Z,10.45
2023-01-11T21:36:53.229Z,6.53
2023-01-11T21:39:19.648Z,11.48
2023-01-11T21:41:46.082Z,9.77
2023-01-11T21:44:13.249Z,8.65
2023-01-11T21:46:39.840Z,10.63
2023-01-11T21:49:06.391Z,7.82
2023-01-11T21:51:32.835Z,5.50
2023-01-11T21:53:59.331Z,7.25
2023-01-11T21:56:25.935Z,8.75
2023-01-11T21:58:52.354Z,15.68
2023-01-11T22:01:19.153Z,7.47
2023-01-11T22:03:46.849Z,8.35
2023-01-11T22:06:13.291Z,6.90
2023-01-11T22:08:39.968Z,11.23
2023-01-11T22:11:06.560Z,5.15
2023-01-11T22:13:34.229Z,5.13
2023-01-11T22:16:01.842Z,7.85
2023-01-11T22:18:28.504Z,9.27
2023-01-11T22:20:54.965Z,12.05
2023-01-11T22:23:21.684Z,7.30
2023-01-11T22:25:48.104Z,12.18
2023-01-11T22:28:16.721Z,10.05
2023-01-11T22:30:43.142Z,5.60
2023-01-11T22:33:09.541Z,5.28
2023-01-11T22:35:36.041Z,6.90
2023-01-11T22:38:02.454Z,7.30
2023-01-11T22:40:28.864Z,5.60
2023-01-11T22:42:55.303Z,7.03
2023-01-11T22:45:21.777Z,7.18
2023-01-11T22:47:48.184Z,7.10
2023-01-11T22:50:14.930Z,7.05
2023-01-11T22:52:41.389Z,7.32
2023-01-11T22:55:08.199Z,7.90
2023-01-11T22:57:34.589Z,7.00
2023-01-11T23:00:00.970Z,9.32
2023-01-11T23:02:27.412Z,5.05
2023-01-11T23:04:53.863Z,7.50
2023-01-11T23:07:20.277Z,10.32
2023-01-11T23:09:46.708Z,7.72
2023-01-11T23:12:13.195Z,6.40
2023-01-11T23:14:39.647Z,4.68
2023-01-11T23:17:06.097Z,5.97
2023-01-11T23:19:32.899Z,7.38
2023-01-11T23:21:59.354Z,4.85
2023-01-11T23:24:25.749Z,6.13
2023-01-11T23:26:52.220Z,6.20
2023-01-11T23:29:18.694Z,3.30
2023-01-11T23:31:45.280Z,7.20
2023-01-11T23:34:11.940Z,4.00
2023-01-11T23:36:39.765Z,4.95
2023-01-11T23:39:07.289Z,6.50
2023-01-11T23:41:33.747Z,5.00
2023-01-11T23:44:00.274Z,4.20
2023-01-11T23:46:26.794Z,5.95
2023-01-11T23:48:53.219Z,7.07
2023-01-11T23:51:19.608Z,3.28
2023-01-11T23:53:46.100Z,7.13
2023-01-11T23:56:12.590Z,8.55
2023-01-11T23:58:39.019Z,5.32
